Time;durP1;ratioP1;P1;durP2;ratioP2;P2;SDS_P1;SDS_P2;PMS_P1;PMS_P2;Temp;Humidity;BMP_temperature;BMP_pressure;BME280_temperature;BME280_humidity;BME280_pressure;Samples;Min_cycle;Max_cycle;Signal;HPM_P1;HPM_P2
2023/12/01 03:40:17;;;;;;;;;;;-0.50;99.90;;;;;;6731929;88;20071;-77
2023/12/01 03:50:18;;;;;;;;;;;-0.40;99.90;;;;;;6743077;88;20058;-81
2023/12/01 04:00:21;;;;;;;;;;;-0.40;99.90;;;;;;6746172;88;20645;-79
2023/12/01 04:10:22;;;;;;;;;;;-0.40;99.90;;;;;;6745923;88;20120;-81
2023/12/01 04:20:25;;;;;;;;;;;-0.30;99.90;;;;;;6740113;88;20090;-79
2023/12/01 04:30:25;;;;;;;;;;;-0.30;99.90;;;;;;6748604;88;20129;-78
2023/12/01 04:40:27;;;;;;;;;;;-0.20;99.90;;;;;;6747870;88;20058;-79
2023/12/01 04:50:29;;;;;;;;;;;-0.20;99.90;;;;;;6745732;88;20224;-82
2023/12/01 05:00:30;;;;;;;;;;;-0.20;99.90;;;;;;6746749;88;20049;-79
2023/12/01 05:10:31;;;;;;;;;;;-0.10;99.90;;;;;;6745261;88;20107;-80
2023/12/01 05:20:32;;;;;;;;;;;-0.10;99.90;;;;;;6747171;88;20055;-78
2023/12/01 05:30:33;;;;;;;;;;;-0.10;99.90;;;;;;6729546;88;20085;-78
2023/12/01 05:40:35;;;;;;;;;;;-0.10;99.90;;;;;;6746612;88;20245;-78
2023/12/01 05:50:36;;;;;;;;;;;-0.10;99.90;;;;;;6750454;88;20783;-78
2023/12/01 06:00:36;;;;;;;;;;;0.00;99.90;;;;;;6747897;88;20064;-79
2023/12/01 06:10:37;;;;;;;;;;;0.00;99.90;;;;;;6748905;88;20053;-77
2023/12/01 06:20:38;;;;;;;;;;;-0.10;99.90;;;;;;6745412;88;20540;-79
2023/12/01 06:30:38;;;;;;;;;;;0.00;99.90;;;;;;6744030;88;20138;-77
2023/12/01 06:40:39;;;;;;;;;;;0.00;99.90;;;;;;6740696;88;20136;-77
2023/12/01 06:50:39;;;;;;;;;;;-0.10;99.90;;;;;;6742323;88;20101;-78
2023/12/01 07:00:40;;;;;;;;;;;0.00;99.90;;;;;;6742003;88;20069;-78
2023/12/01 07:10:40;;;;;;;;;;;0.00;99.90;;;;;;6741988;88;20067;-78
2023/12/01 07:20:41;;;;;;;;;;;0.00;99.90;;;;;;6741860;88;20078;-78
2023/12/01 07:30:41;;;;;;;;;;;0.00;99.90;;;;;;6752667;88;20061;-79
2023/12/01 07:40:42;;;;;;;;;;;0.00;99.90;;;;;;6746561;88;20083;-79
2023/12/01 07:50:44;;;;;;;;;;;-0.10;99.90;;;;;;6739420;88;20126;-78
2023/12/01 08:00:45;;;;;;;;;;;0.00;99.90;;;;;;6741640;88;20513;-78
2023/12/01 08:10:46;;;;;;;;;;;-0.10;99.90;;;;;;6740960;88;20075;-78
2023/12/01 08:20:46;;;;;;;;;;;-0.20;99.90;;;;;;6736943;88;20118;-78
2023/12/01 08:30:47;;;;;;;;;;;-0.20;99.90;;;;;;6726779;88;20070;-78
2023/12/01 08:40:48;;;;;;;;;;;-0.20;99.90;;;;;;6732230;88;20088;-77
2023/12/01 08:50:48;;;;;;;;;;;-0.20;99.90;;;;;;6736231;88;20058;-77
2023/12/01 09:00:48;;;;;;;;;;;0.00;99.90;;;;;;6743897;88;20062;-78
2023/12/01 09:10:49;;;;;;;;;;;0.10;99.90;;;;;;6750233;88;20061;-78
2023/12/01 09:20:50;;;;;;;;;;;0.10;99.90;;;;;;6727474;88;20058;-78
2023/12/01 09:41:34;;;;;;;;;;;0.40;99.90;;;;;;6725042;88;20112;-78
2023/12/01 09:51:36;;;;;;;;;;;0.60;99.90;;;;;;6725020;88;20105;-79
2023/12/01 10:01:38;;;;;;;;;;;0.50;99.90;;;;;;6725998;88;20097;-79
2023/12/01 10:11:38;;;;;;;;;;;0.50;99.90;;;;;;6723109;88;20070;-79
2023/12/01 10:21:46;;;;;;;;;;;0.60;99.90;;;;;;6725434;88;20672;-80
2023/12/01 10:31:47;;;;;;;;;;;0.60;99.90;;;;;;6709860;88;20088;-82
2023/12/01 10:41:47;;;;;;;;;;;0.70;99.90;;;;;;6708950;88;20056;-80
2023/12/01 10:51:52;;;;;;;;;;;0.80;99.90;;;;;;6709638;88;20413;-79
2023/12/01 11:01:53;;;;;;;;;;;1.00;99.90;;;;;;6711271;88;20281;-80
2023/12/01 11:11:56;;;;;;;;;;;0.90;99.90;;;;;;6710400;88;20522;-80
2023/12/01 11:21:57;;;;;;;;;;;0.90;99.90;;;;;;6709080;88;20082;-80
2023/12/01 11:31:57;;;;;;;;;;;1.10;99.90;;;;;;6711952;88;20095;-80
2023/12/01 11:41:58;;;;;;;;;;;1.10;99.90;;;;;;6710645;88;20055;-80
2023/12/01 11:51:59;;;;;;;;;;;1.10;99.90;;;;;;6707726;88;20055;-80
2023/12/01 12:02:00;;;;;;;;;;;1.00;99.90;;;;;;6709258;88;20072;-80
2023/12/01 12:12:01;;;;;;;;;;;1.00;99.90;;;;;;6707833;88;20089;-81
2023/12/01 12:22:01;;;;;;;;;;;1.00;99.90;;;;;;6707873;88;20151;-79
2023/12/01 12:32:02;;;;;;;;;;;1.00;99.90;;;;;;6706365;88;20139;-78
2023/12/01 12:42:02;;;;;;;;;;;1.20;99.90;;;;;;6713099;88;20221;-78
2023/12/01 12:52:04;;;;;;;;;;;1.10;99.90;;;;;;6723819;88;20575;-81
2023/12/01 13:02:05;;;;;;;;;;;1.10;99.90;;;;;;6729084;88;20057;-80
2023/12/01 13:12:05;;;;;;;;;;;1.10;99.90;;;;;;6729478;88;20054;-80
2023/12/01 13:22:06;;;;;;;;;;;1.20;99.90;;;;;;6722981;88;20465;-81
2023/12/01 13:32:07;;;;;;;;;;;1.10;99.90;;;;;;6720104;88;20098;-81
2023/12/01 13:42:07;;;;;;;;;;;1.00;99.90;;;;;;6720085;88;20106;-81
2023/12/01 13:52:07;;;;;;;;;;;0.90;99.90;;;;;;6727229;88;20083;-80
2023/12/01 14:02:08;;;;;;;;;;;1.00;99.90;;;;;;6718643;88;20088;-81
2023/12/01 14:12:09;;;;;;;;;;;1.00;99.90;;;;;;6720533;88;20113;-82
2023/12/01 14:22:10;;;;;;;;;;;1.00;99.90;;;;;;6723425;88;20143;-81
2023/12/01 14:32:11;;;;;;;;;;;1.00;99.90;;;;;;6727176;88;20108;-81
2023/12/01 14:42:11;;;;;;;;;;;1.10;99.90;;;;;;6728205;88;20057;-81
2023/12/01 14:52:12;;;;;;;;;;;1.10;99.90;;;;;;6716523;88;20091;-80
2023/12/01 15:02:13;;;;;;;;;;;0.90;99.90;;;;;;6708738;88;20255;-80
2023/12/01 15:12:14;;;;;;;;;;;0.90;99.90;;;;;;6709687;88;20047;-80
2023/12/01 15:22:14;;;;;;;;;;;0.80;99.90;;;;;;6721899;88;20067;-81
2023/12/01 15:32:15;;;;;;;;;;;0.80;99.90;;;;;;6723570;88;20125;-79
2023/12/01 15:42:16;;;;;;;;;;;0.80;99.90;;;;;;6725080;88;20078;-78
2023/12/01 15:52:16;;;;;;;;;;;0.70;99.90;;;;;;6719085;88;20156;-78
2023/12/01 16:02:20;;;;;;;;;;;0.70;99.90;;;;;;6718556;88;20112;-77
2023/12/01 16:12:20;;;;;;;;;;;0.70;99.90;;;;;;6723066;88;20044;-78
2023/12/01 16:22:21;;;;;;;;;;;0.60;99.90;;;;;;6726447;88;20082;-79
2023/12/01 16:32:21;;;;;;;;;;;0.60;99.90;;;;;;6713939;88;20063;-79
2023/12/01 16:42:22;;;;;;;;;;;0.60;99.90;;;;;;6720209;88;20112;-78
2023/12/01 16:52:22;;;;;;;;;;;0.70;99.90;;;;;;6725921;88;20104;-81
2023/12/01 17:02:23;;;;;;;;;;;0.60;99.90;;;;;;6725157;88;20093;-79
2023/12/01 17:12:24;;;;;;;;;;;0.50;99.90;;;;;;6728620;88;20079;-79
2023/12/01 17:22:24;;;;;;;;;;;0.50;99.90;;;;;;6727944;88;20043;-80
2023/12/01 17:32:25;;;;;;;;;;;0.40;99.90;;;;;;6727544;88;20060;-80
2023/12/01 17:42:25;;;;;;;;;;;0.30;99.90;;;;;;6724754;88;20117;-80
2023/12/01 17:52:26;;;;;;;;;;;0.40;99.90;;;;;;6731637;88;20122;-80
2023/12/01 18:02:27;;;;;;;;;;;0.40;99.90;;;;;;6736831;88;20083;-79
2023/12/01 18:12:27;;;;;;;;;;;0.30;99.90;;;;;;6722322;88;20116;-81
2023/12/01 18:22:27;;;;;;;;;;;0.30;99.90;;;;;;6734666;88;20800;-80
2023/12/01 18:32:28;;;;;;;;;;;0.30;99.90;;;;;;6725513;88;20108;-81
2023/12/01 18:42:28;;;;;;;;;;;0.30;99.90;;;;;;6737742;88;20403;-81
2023/12/01 18:52:29;;;;;;;;;;;0.10;99.90;;;;;;6728129;88;20055;-79
2023/12/01 19:02:29;;;;;;;;;;;0.10;99.90;;;;;;6732562;88;20819;-79
2023/12/01 19:12:30;;;;;;;;;;;0.00;99.90;;;;;;6734494;88;20151;-79
2023/12/01 19:22:31;;;;;;;;;;;0.00;99.90;;;;;;6729500;88;20135;-79
2023/12/01 19:32:32;;;;;;;;;;;0.10;99.90;;;;;;6733753;88;20069;-79
2023/12/01 19:42:32;;;;;;;;;;;0.00;99.90;;;;;;6721813;88;20074;-79
2023/12/01 19:52:33;;;;;;;;;;;0.00;99.90;;;;;;6727386;88;20093;-79
2023/12/01 20:02:34;;;;;;;;;;;0.00;99.90;;;;;;6723043;88;20058;-79
2023/12/01 20:12:34;;;;;;;;;;;0.00;99.90;;;;;;6722652;88;20067;-81
2023/12/01 20:22:35;;;;;;;;;;;0.00;99.90;;;;;;6714539;88;20142;-81
2023/12/01 20:32:36;;;;;;;;;;;-0.20;99.90;;;;;;6706426;88;20059;-79
2023/12/01 20:42:36;;;;;;;;;;;-0.20;99.90;;;;;;6708313;88;20064;-78
2023/12/01 20:52:37;;;;;;;;;;;-0.40;99.90;;;;;;6718116;88;20055;-79
2023/12/01 21:02:37;;;;;;;;;;;-0.40;99.90;;;;;;6713405;88;20065;-80
2023/12/01 21:12:38;;;;;;;;;;;-0.60;99.90;;;;;;6714091;88;20084;-81
2023/12/01 21:22:38;;;;;;;;;;;-0.60;99.90;;;;;;6709502;88;20082;-81
2023/12/01 21:32:39;;;;;;;;;;;-0.50;99.90;;;;;;6722367;88;20177;-80
2023/12/01 21:42:39;;;;;;;;;;;-0.50;99.90;;;;;;6717445;88;20141;-79
2023/12/01 21:52:40;;;;;;;;;;;-0.50;99.90;;;;;;6723104;88;20161;-79
2023/12/01 22:02:40;;;;;;;;;;;-0.50;99.90;;;;;;6718863;88;20079;-79
2023/12/01 22:12:42;;;;;;;;;;;-0.50;99.90;;;;;;6725655;88;20059;-78
2023/12/01 22:22:42;;;;;;;;;;;-0.60;99.90;;;;;;6723256;88;20074;-79
2023/12/01 22:32:43;;;;;;;;;;;-0.60;99.90;;;;;;6720170;88;20068;-79
2023/12/01 22:42:43;;;;;;;;;;;-0.60;99.90;;;;;;6724564;88;20690;-79
2023/12/01 22:52:44;;;;;;;;;;;-0.60;99.90;;;;;;6720052;88;20537;-79
2023/12/01 23:02:45;;;;;;;;;;;-0.70;99.90;;;;;;6728234;88;20103;-79
2023/12/01 23:12:45;;;;;;;;;;;-0.70;99.90;;;;;;6725689;88;20146;-79
2023/12/01 23:22:46;;;;;;;;;;;-0.80;99.90;;;;;;6723130;88;20194;-78
2023/12/01 23:32:46;;;;;;;;;;;-0.70;99.90;;;;;;6720969;88;20101;-80
2023/12/01 23:42:47;;;;;;;;;;;-0.80;99.90;;;;;;6718012;88;20051;-79
2023/12/01 23:52:47;;;;;;;;;;;-0.90;99.90;;;;;;6721855;88;20052;-78
